LFBY

Details ICAO LFBY
Name Dax Seyresse
Region France
Timezone Europe/Paris (UTC+1.0)
Plans Departing 10
Arriving 9
Stats Elevation 108 ft / 33 m (AMSL)
Location 43.689995° -1.066997°
Runways 1
Magnetic Variation 0.104° W
Sunrise 2017-12-16 07:33:06 UTC / 2017-12-16 08:33:06 Local
Sunset 2017-12-16 16:29:29 UTC / 2017-12-16 17:29:29 Local
Advertisement - Login to hide

Runways

ID Width Length Bearing (true) Bearing (mag) Surface Threshold Offset Overrun Length
08 98 ft / 30 m 2,462 ft / 751 m 74.00° 74.10° Dirt 0 ft / 0 m 0 ft / 0 m
26 98 ft / 30 m 2,462 ft / 751 m 254.00° 254.10° Dirt 0 ft / 0 m 0 ft / 0 m

Map

Weather


0- 5 10 15 20 25 30 35+ Temperature / ° C

Clouds and Precipitation
Forecast for 2017-12-17 00:00 UTC. Updated 10 minutes ago

Ground ~20,000 ft ~40,000 ft Winds

METAR

LFBY 161930Z AUTO 19001KT 0300 0250 // ////// 03/02 Q1027

TAF

Not found
Warning: Do not use this data for real-world aviation or navigation. No guarantee of current accuracy is given.